sensor_id;sensor_type;location;lat;lon;timestamp;pressure;altitude;pressure_sealevel;temperature;humidity
49835;BME280;35729;52.090;13.162;2023-04-02T00:02:25;100551.50;;;3.12;97.12
49835;BME280;35729;52.090;13.162;2023-04-02T00:05:39;100559.25;;;3.10;95.90
49835;BME280;35729;52.090;13.162;2023-04-02T00:08:36;100567.94;;;3.11;95.84
49835;BME280;35729;52.090;13.162;2023-04-02T00:11:06;100562.72;;;3.09;95.92
49835;BME280;35729;52.090;13.162;2023-04-02T00:13:39;100580.84;;;3.08;96.48
49835;BME280;35729;52.090;13.162;2023-04-02T00:16:13;100578.25;;;3.05;96.68
49835;BME280;35729;52.090;13.162;2023-04-02T00:18:46;100579.09;;;3.07;97.28
49835;BME280;35729;52.090;13.162;2023-04-02T00:21:20;100585.16;;;3.04;94.47
49835;BME280;35729;52.090;13.162;2023-04-02T00:23:49;100590.34;;;3.04;95.05
49835;BME280;35729;52.090;13.162;2023-04-02T00:26:28;100588.63;;;3.03;96.27
49835;BME280;35729;52.090;13.162;2023-04-02T00:28:58;100592.91;;;3.04;96.92
49835;BME280;35729;52.090;13.162;2023-04-02T00:31:30;100591.19;;;3.02;94.33
49835;BME280;35729;52.090;13.162;2023-04-02T00:34:00;100594.66;;;3.04;95.96
49835;BME280;35729;52.090;13.162;2023-04-02T00:36:32;100600.69;;;3.04;97.27
49835;BME280;35729;52.090;13.162;2023-04-02T00:39:03;100605.03;;;3.04;96.63
49835;BME280;35729;52.090;13.162;2023-04-02T00:41:35;100607.63;;;3.02;94.22
49835;BME280;35729;52.090;13.162;2023-04-02T00:44:11;100605.00;;;3.01;95.02
49835;BME280;35729;52.090;13.162;2023-04-02T00:46:43;100612.75;;;2.98;94.90
49835;BME280;35729;52.090;13.162;2023-04-02T00:49:20;100620.53;;;2.96;94.32
49835;BME280;35729;52.090;13.162;2023-04-02T00:51:52;100624.81;;;2.96;94.60
49835;BME280;35729;52.090;13.162;2023-04-02T00:54:23;100630.84;;;2.93;93.06
49835;BME280;35729;52.090;13.162;2023-04-02T00:56:54;100630.00;;;2.91;95.20
49835;BME280;35729;52.090;13.162;2023-04-02T00:59:26;100633.44;;;2.91;95.13
49835;BME280;35729;52.090;13.162;2023-04-02T01:04:51;100641.19;;;2.88;94.07
49835;BME280;35729;52.090;13.162;2023-04-02T01:07:27;100641.19;;;2.88;93.55
49835;BME280;35729;52.090;13.162;2023-04-02T01:10:15;100647.22;;;2.86;93.94
49835;BME280;35729;52.090;13.162;2023-04-02T01:12:53;100653.25;;;2.86;95.66
49835;BME280;35729;52.090;13.162;2023-04-02T01:15:27;100663.63;;;2.86;95.30
49835;BME280;35729;52.090;13.162;2023-04-02T01:18:14;100667.06;;;2.87;94.32
49835;BME280;35729;52.090;13.162;2023-04-02T01:21:12;100661.88;;;2.85;91.56
49835;BME280;35729;52.090;13.162;2023-04-02T01:23:56;100676.53;;;2.82;92.62
49835;BME280;35729;52.090;13.162;2023-04-02T01:29:21;100683.44;;;2.80;92.37
49835;BME280;35729;52.090;13.162;2023-04-02T01:31:52;100686.03;;;2.78;93.72
49835;BME280;35729;52.090;13.162;2023-04-02T01:34:24;100694.63;;;2.75;93.04
49835;BME280;35729;52.090;13.162;2023-04-02T01:37:05;100703.28;;;2.74;93.12
49835;BME280;35729;52.090;13.162;2023-04-02T01:39:53;100707.56;;;2.74;95.10
49835;BME280;35729;52.090;13.162;2023-04-02T01:42:31;100711.03;;;2.74;95.07
49835;BME280;35729;52.090;13.162;2023-04-02T01:45:04;100713.63;;;2.74;93.67
49835;BME280;35729;52.090;13.162;2023-04-02T01:47:37;100721.34;;;2.71;92.82
49835;BME280;35729;52.090;13.162;2023-04-02T01:50:21;100715.31;;;2.71;93.63
49835;BME280;35729;52.090;13.162;2023-04-02T01:52:52;100727.38;;;2.70;93.96
49835;BME280;35729;52.090;13.162;2023-04-02T01:55:29;100723.94;;;2.71;94.91
49835;BME280;35729;52.090;13.162;2023-04-02T01:58:00;100728.28;;;2.72;95.36
49835;BME280;35729;52.090;13.162;2023-04-02T02:00:33;100729.97;;;2.70;94.27
49835;BME280;35729;52.090;13.162;2023-04-02T02:03:03;100736.91;;;2.71;91.81
49835;BME280;35729;52.090;13.162;2023-04-02T02:05:38;100740.34;;;2.70;91.71
49835;BME280;35729;52.090;13.162;2023-04-02T02:08:18;100734.31;;;2.70;94.99
49835;BME280;35729;52.090;13.162;2023-04-02T02:10:49;100749.00;;;2.69;94.39
49835;BME280;35729;52.090;13.162;2023-04-02T02:13:17;100749.84;;;2.68;94.59
49835;BME280;35729;52.090;13.162;2023-04-02T02:15:49;100753.28;;;2.67;93.33
49835;BME280;35729;52.090;13.162;2023-04-02T02:18:19;100747.19;;;2.65;94.24
49835;BME280;35729;52.090;13.162;2023-04-02T02:20:49;100762.78;;;2.67;93.99
49835;BME280;35729;52.090;13.162;2023-04-02T02:23:18;100764.47;;;2.66;93.80
49835;BME280;35729;52.090;13.162;2023-04-02T02:25:48;100767.06;;;2.65;94.02
49835;BME280;35729;52.090;13.162;2023-04-02T02:28:19;100773.97;;;2.64;92.18
49835;BME280;35729;52.090;13.162;2023-04-02T02:30:56;100782.63;;;2.66;94.22
49835;BME280;35729;52.090;13.162;2023-04-02T02:33:28;100791.22;;;2.64;92.92
49835;BME280;35729;52.090;13.162;2023-04-02T02:36:00;100795.53;;;2.63;91.85
49835;BME280;35729;52.090;13.162;2023-04-02T02:38:41;100799.88;;;2.64;94.11
49835;BME280;35729;52.090;13.162;2023-04-02T02:41:17;100802.44;;;2.63;92.98
49835;BME280;35729;52.090;13.162;2023-04-02T02:43:50;100805.91;;;2.63;90.94
49835;BME280;35729;52.090;13.162;2023-04-02T02:46:23;100816.22;;;2.61;92.42
49835;BME280;35729;52.090;13.162;2023-04-02T02:48:54;100817.09;;;2.60;93.39
49835;BME280;35729;52.090;13.162;2023-04-02T02:51:28;100818.81;;;2.60;94.02
49835;BME280;35729;52.090;13.162;2023-04-02T02:54:00;100827.47;;;2.60;93.60
49835;BME280;35729;52.090;13.162;2023-04-02T02:56:32;100824.84;;;2.59;92.29
49835;BME280;35729;52.090;13.162;2023-04-02T02:59:04;100829.16;;;2.58;93.15
49835;BME280;35729;52.090;13.162;2023-04-02T03:01:46;100827.41;;;2.57;94.93
49835;BME280;35729;52.090;13.162;2023-04-02T03:04:18;100845.56;;;2.59;93.36
49835;BME280;35729;52.090;13.162;2023-04-02T03:06:49;100845.56;;;2.59;93.06
49835;BME280;35729;52.090;13.162;2023-04-02T03:09:30;100844.69;;;2.55;92.02
49835;BME280;35729;52.090;13.162;2023-04-02T03:12:04;100855.88;;;2.56;92.04
49835;BME280;35729;52.090;13.162;2023-04-02T03:14:39;100854.16;;;2.55;93.48
49835;BME280;35729;52.090;13.162;2023-04-02T03:17:32;100855.88;;;2.53;93.00
49835;BME280;35729;52.090;13.162;2023-04-02T03:20:09;100858.41;;;2.51;92.32
49835;BME280;35729;52.090;13.162;2023-04-02T03:22:44;100871.41;;;2.53;92.46
49835;BME280;35729;52.090;13.162;2023-04-02T03:25:22;100872.22;;;2.50;91.32
49835;BME280;35729;52.090;13.162;2023-04-02T03:27:57;100875.66;;;2.49;92.61
49835;BME280;35729;52.090;13.162;2023-04-02T03:30:35;100887.72;;;2.49;91.53
49835;BME280;35729;52.090;13.162;2023-04-02T03:33:11;100891.16;;;2.46;91.49
49835;BME280;35729;52.090;13.162;2023-04-02T03:35:43;100891.13;;;2.43;87.49
49835;BME280;35729;52.090;13.162;2023-04-02T03:38:17;100900.59;;;2.42;89.09
49835;BME280;35729;52.090;13.162;2023-04-02T03:40:57;100910.09;;;2.42;91.63
49835;BME280;35729;52.090;13.162;2023-04-02T03:43:27;100923.06;;;2.43;92.66
49835;BME280;35729;52.090;13.162;2023-04-02T03:46:17;100919.59;;;2.41;90.52
49835;BME280;35729;52.090;13.162;2023-04-02T03:48:54;100924.81;;;2.44;92.51
49835;BME280;35729;52.090;13.162;2023-04-02T03:51:26;100935.16;;;2.44;92.80
49835;BME280;35729;52.090;13.162;2023-04-02T03:53:57;100929.06;;;2.41;86.88
49835;BME280;35729;52.090;13.162;2023-04-02T03:56:28;100935.13;;;2.41;90.61
49835;BME280;35729;52.090;13.162;2023-04-02T03:59:09;100946.28;;;2.39;90.24
49835;BME280;35729;52.090;13.162;2023-04-02T04:01:44;100955.78;;;2.38;90.02
49835;BME280;35729;52.090;13.162;2023-04-02T04:04:19;100959.22;;;2.37;90.41
49835;BME280;35729;52.090;13.162;2023-04-02T04:06:50;100961.81;;;2.37;89.14
49835;BME280;35729;52.090;13.162;2023-04-02T04:09:24;100961.78;;;2.34;88.21
49835;BME280;35729;52.090;13.162;2023-04-02T04:12:11;100972.94;;;2.32;86.50
49835;BME280;35729;52.090;13.162;2023-04-02T04:14:43;100976.41;;;2.32;89.72
49835;BME280;35729;52.090;13.162;2023-04-02T04:17:20;100979.00;;;2.32;90.33
49835;BME280;35729;52.090;13.162;2023-04-02T04:19:59;100986.72;;;2.29;89.67
49835;BME280;35729;52.090;13.162;2023-04-02T04:22:32;100982.31;;;2.25;88.43
49835;BME280;35729;52.090;13.162;2023-04-02T04:25:05;100999.66;;;2.27;88.93
49835;BME280;35729;52.090;13.162;2023-04-02T04:27:39;101003.91;;;2.24;87.09
49835;BME280;35729;52.090;13.162;2023-04-02T04:30:15;101010.78;;;2.25;90.02
49835;BME280;35729;52.090;13.162;2023-04-02T04:32:51;101012.53;;;2.26;86.38
49835;BME280;35729;52.090;13.162;2023-04-02T04:35:28;101025.47;;;2.23;86.76
49835;BME280;35729;52.090;13.162;2023-04-02T04:38:01;101025.47;;;2.24;88.98
49835;BME280;35729;52.090;13.162;2023-04-02T04:40:33;101031.47;;;2.22;86.23
49835;BME280;35729;52.090;13.162;2023-04-02T04:43:06;101036.63;;;2.19;86.51
49835;BME280;35729;52.090;13.162;2023-04-02T04:45:42;101045.19;;;2.16;85.31
49835;BME280;35729;52.090;13.162;2023-04-02T04:48:16;101047.78;;;2.16;87.97
49835;BME280;35729;52.090;13.162;2023-04-02T04:50:52;101048.66;;;2.17;88.01
49835;BME280;35729;52.090;13.162;2023-04-02T04:53:23;101052.97;;;2.18;88.49
49835;BME280;35729;52.090;13.162;2023-04-02T04:55:52;101061.59;;;2.17;84.73
49835;BME280;35729;52.090;13.162;2023-04-02T04:58:25;101065.94;;;2.18;87.78
49835;BME280;35729;52.090;13.162;2023-04-02T05:01:00;101067.59;;;2.14;86.48
49835;BME280;35729;52.090;13.162;2023-04-02T05:03:34;101087.47;;;2.17;86.72
49835;BME280;35729;52.090;13.162;2023-04-02T05:06:10;101077.13;;;2.17;86.83
49835;BME280;35729;52.090;13.162;2023-04-02T05:08:44;101084.88;;;2.15;83.86
49835;BME280;35729;52.090;13.162;2023-04-02T05:11:19;101091.75;;;2.15;84.91
49835;BME280;35729;52.090;13.162;2023-04-02T05:13:53;101088.31;;;2.16;86.44
49835;BME280;35729;52.090;13.162;2023-04-02T05:16:28;101102.16;;;2.18;88.19
49835;BME280;35729;52.090;13.162;2023-04-02T05:19:04;101103.91;;;2.19;87.43
49835;BME280;35729;52.090;13.162;2023-04-02T05:21:39;101103.91;;;2.19;85.06
49835;BME280;35729;52.090;13.162;2023-04-02T05:24:17;101111.69;;;2.19;82.08
49835;BME280;35729;52.090;13.162;2023-04-02T05:26:58;101113.38;;;2.18;85.61
49835;BME280;35729;52.090;13.162;2023-04-02T05:29:32;101127.22;;;2.19;86.92
49835;BME280;35729;52.090;13.162;2023-04-02T05:32:05;101130.69;;;2.21;88.58
49835;BME280;35729;52.090;13.162;2023-04-02T05:34:37;101135.06;;;2.23;88.34
49835;BME280;35729;52.090;13.162;2023-04-02T05:37:15;101140.22;;;2.23;87.24
49835;BME280;35729;52.090;13.162;2023-04-02T05:39:49;101144.59;;;2.26;89.02
49835;BME280;35729;52.090;13.162;2023-04-02T05:42:21;101148.09;;;2.28;89.18
49835;BME280;35729;52.090;13.162;2023-04-02T05:45:02;101153.28;;;2.30;88.99
49835;BME280;35729;52.090;13.162;2023-04-02T05:47:34;101161.09;;;2.31;88.30
49835;BME280;35729;52.090;13.162;2023-04-02T05:50:15;101168.91;;;2.33;88.75
49835;BME280;35729;52.090;13.162;2023-04-02T05:52:50;101170.63;;;2.34;87.45
49835;BME280;35729;52.090;13.162;2023-04-02T05:55:36;101184.44;;;2.33;85.47
49835;BME280;35729;52.090;13.162;2023-04-02T05:58:13;101168.81;;;2.30;85.56
49835;BME280;35729;52.090;13.162;2023-04-02T06:00:57;101185.19;;;2.28;83.51
49835;BME280;35729;52.090;13.162;2023-04-02T06:03:35;101186.97;;;2.30;87.14
49835;BME280;35729;52.090;13.162;2023-04-02T06:06:13;101201.69;;;2.32;88.36
49835;BME280;35729;52.090;13.162;2023-04-02T06:08:49;101190.47;;;2.32;85.06
49835;BME280;35729;52.090;13.162;2023-04-02T06:11:21;101200.84;;;2.33;85.58
49835;BME280;35729;52.090;13.162;2023-04-02T06:13:51;101205.97;;;2.30;80.67
49835;BME280;35729;52.090;13.162;2023-04-02T06:16:20;101207.75;;;2.33;85.07
49835;BME280;35729;52.090;13.162;2023-04-02T06:18:52;101210.38;;;2.34;83.76
49835;BME280;35729;52.090;13.162;2023-04-02T06:21:42;101215.56;;;2.36;85.83
49835;BME280;35729;52.090;13.162;2023-04-02T06:24:19;101215.56;;;2.36;86.15
49835;BME280;35729;52.090;13.162;2023-04-02T06:26:52;101217.34;;;2.38;86.01
49835;BME280;35729;52.090;13.162;2023-04-02T06:29:26;101225.13;;;2.40;84.60
49835;BME280;35729;52.090;13.162;2023-04-02T06:32:00;101223.34;;;2.37;83.09
49835;BME280;35729;52.090;13.162;2023-04-02T06:34:30;101225.13;;;2.40;84.24
49835;BME280;35729;52.090;13.162;2023-04-02T06:37:04;101230.31;;;2.40;84.38
49835;BME280;35729;52.090;13.162;2023-04-02T06:39:40;101242.50;;;2.44;85.54
49835;BME280;35729;52.090;13.162;2023-04-02T06:42:12;101239.09;;;2.47;83.95
49835;BME280;35729;52.090;13.162;2023-04-02T06:44:43;101243.47;;;2.51;83.23
49835;BME280;35729;52.090;13.162;2023-04-02T06:47:18;101244.34;;;2.51;84.70
49835;BME280;35729;52.090;13.162;2023-04-02T06:49:54;101247.88;;;2.56;85.68
49835;BME280;35729;52.090;13.162;2023-04-02T06:52:30;101251.44;;;2.61;86.13
49835;BME280;35729;52.090;13.162;2023-04-02T06:55:06;101263.63;;;2.64;83.58
49835;BME280;35729;52.090;13.162;2023-04-02T06:57:45;101261.06;;;2.67;83.75
49835;BME280;35729;52.090;13.162;2023-04-02T07:00:23;101269.78;;;2.71;84.43
49835;BME280;35729;52.090;13.162;2023-04-02T07:02:54;101269.81;;;2.72;81.10
49835;BME280;35729;52.090;13.162;2023-04-02T07:05:23;101279.31;;;2.73;83.22
49835;BME280;35729;52.090;13.162;2023-04-02T07:07:54;101287.97;;;2.75;83.27
49835;BME280;35729;52.090;13.162;2023-04-02T07:10:22;101295.00;;;2.80;82.41
49835;BME280;35729;52.090;13.162;2023-04-02T07:12:51;101287.25;;;2.81;80.31
49835;BME280;35729;52.090;13.162;2023-04-02T07:15:19;101291.59;;;2.84;82.03
49835;BME280;35729;52.090;13.162;2023-04-02T07:17:48;101289.97;;;2.89;83.10
49835;BME280;35729;52.090;13.162;2023-04-02T07:20:25;101299.59;;;2.95;79.71
49835;BME280;35729;52.090;13.162;2023-04-02T07:22:56;101303.97;;;2.97;80.11
49835;BME280;35729;52.090;13.162;2023-04-02T07:25:26;101312.63;;;2.99;74.87
49835;BME280;35729;52.090;13.162;2023-04-02T07:27:55;101311.84;;;3.03;77.13
49835;BME280;35729;52.090;13.162;2023-04-02T07:30:24;101321.44;;;3.09;79.48
49835;BME280;35729;52.090;13.162;2023-04-02T07:32:52;101322.41;;;3.14;78.64
49835;BME280;35729;52.090;13.162;2023-04-02T07:35:21;101332.84;;;3.17;76.70
49835;BME280;35729;52.090;13.162;2023-04-02T07:37:49;101329.47;;;3.21;77.46
49835;BME280;35729;52.090;13.162;2023-04-02T07:40:20;101337.31;;;3.26;79.01
49835;BME280;35729;52.090;13.162;2023-04-02T07:42:49;101333.13;;;3.33;79.38
49835;BME280;35729;52.090;13.162;2023-04-02T07:45:18;101336.59;;;3.35;77.01
49835;BME280;35729;52.090;13.162;2023-04-02T07:47:46;101341.88;;;3.39;75.75
49835;BME280;35729;52.090;13.162;2023-04-02T07:50:16;101346.22;;;3.40;77.39
49835;BME280;35729;52.090;13.162;2023-04-02T07:52:44;101344.53;;;3.42;77.37
49835;BME280;35729;52.090;13.162;2023-04-02T07:55:14;101341.97;;;3.44;77.40
49835;BME280;35729;52.090;13.162;2023-04-02T07:57:51;101349.84;;;3.50;76.96
49835;BME280;35729;52.090;13.162;2023-04-02T08:00:21;101355.16;;;3.56;78.40
49835;BME280;35729;52.090;13.162;2023-04-02T08:02:50;101362.16;;;3.62;76.30
49835;BME280;35729;52.090;13.162;2023-04-02T08:05:19;101369.13;;;3.66;78.17
49835;BME280;35729;52.090;13.162;2023-04-02T08:07:51;101368.31;;;3.69;77.20
49835;BME280;35729;52.090;13.162;2023-04-02T08:10:22;101371.84;;;3.74;78.54
49835;BME280;35729;52.090;13.162;2023-04-02T08:12:53;101376.22;;;3.77;77.42
49835;BME280;35729;52.090;13.162;2023-04-02T08:15:22;101386.66;;;3.80;76.21
49835;BME280;35729;52.090;13.162;2023-04-02T08:17:50;101389.28;;;3.83;78.15
49835;BME280;35729;52.090;13.162;2023-04-02T08:20:25;101388.44;;;3.84;76.01
49835;BME280;35729;52.090;13.162;2023-04-02T08:23:01;101388.44;;;3.84;77.15
49835;BME280;35729;52.090;13.162;2023-04-02T08:25:31;101396.25;;;3.84;76.28
49835;BME280;35729;52.090;13.162;2023-04-02T08:28:02;101400.59;;;3.85;77.90
49835;BME280;35729;52.090;13.162;2023-04-02T08:30:31;101407.63;;;3.90;78.51
49835;BME280;35729;52.090;13.162;2023-04-02T08:32:59;101396.47;;;3.99;76.42
49835;BME280;35729;52.090;13.162;2023-04-02T08:35:28;101407.03;;;4.10;77.25
49835;BME280;35729;52.090;13.162;2023-04-02T08:37:56;101413.28;;;4.21;77.32
49835;BME280;35729;52.090;13.162;2023-04-02T08:40:28;101411.72;;;4.34;77.65
49835;BME280;35729;52.090;13.162;2023-04-02T08:45:54;101415.47;;;4.53;73.61
49835;BME280;35729;52.090;13.162;2023-04-02T08:48:30;101414.78;;;4.65;75.47
49835;BME280;35729;52.090;13.162;2023-04-02T08:51:01;101421.91;;;4.80;76.14
49835;BME280;35729;52.090;13.162;2023-04-02T08:53:34;101418.66;;;4.97;75.64
49835;BME280;35729;52.090;13.162;2023-04-02T08:56:08;101427.47;;;5.10;69.15
49835;BME280;35729;52.090;13.162;2023-04-02T08:58:43;101416.31;;;5.21;70.23
49835;BME280;35729;52.090;13.162;2023-04-02T09:01:22;101414.69;;;5.30;69.23
49835;BME280;35729;52.090;13.162;2023-04-02T09:03:57;101421.69;;;5.37;74.58
49835;BME280;35729;52.090;13.162;2023-04-02T09:06:28;101425.31;;;5.50;73.99
49835;BME280;35729;52.090;13.162;2023-04-02T09:08:57;101431.50;;;5.63;70.50
49835;BME280;35729;52.090;13.162;2023-04-02T09:11:32;101438.53;;;5.70;71.17
49835;BME280;35729;52.090;13.162;2023-04-02T09:14:05;101435.94;;;5.76;69.50
49835;BME280;35729;52.090;13.162;2023-04-02T09:16:42;101443.88;;;5.85;72.48
49835;BME280;35729;52.090;13.162;2023-04-02T09:19:16;101452.59;;;5.89;67.97
49835;BME280;35729;52.090;13.162;2023-04-02T09:21:58;101450.91;;;5.96;67.01
49835;BME280;35729;52.090;13.162;2023-04-02T09:24:30;101467.38;;;5.96;69.73
49835;BME280;35729;52.090;13.162;2023-04-02T09:26:59;101456.94;;;5.92;68.52
49835;BME280;35729;52.090;13.162;2023-04-02T09:29:36;101469.91;;;5.84;67.00
49835;BME280;35729;52.090;13.162;2023-04-02T09:32:20;101465.56;;;5.84;67.03
49835;BME280;35729;52.090;13.162;2023-04-02T09:35:05;101469.91;;;5.87;68.35
49835;BME280;35729;52.090;13.162;2023-04-02T09:37:34;101484.69;;;5.86;70.96
49835;BME280;35729;52.090;13.162;2023-04-02T09:40:16;101483.78;;;5.86;70.03
49835;BME280;35729;52.090;13.162;2023-04-02T09:42:45;101495.94;;;5.85;72.26
49835;BME280;35729;52.090;13.162;2023-04-02T09:45:19;101496.78;;;5.83;67.57
49835;BME280;35729;52.090;13.162;2023-04-02T09:47:53;101502.00;;;5.83;70.85
49835;BME280;35729;52.090;13.162;2023-04-02T09:50:29;101514.13;;;5.79;67.40
49835;BME280;35729;52.090;13.162;2023-04-02T09:53:23;101519.19;;;5.65;61.12
49835;BME280;35729;52.090;13.162;2023-04-02T09:56:06;101523.31;;;5.49;62.84
49835;BME280;35729;52.090;13.162;2023-04-02T09:58:35;101520.63;;;5.38;68.10
49835;BME280;35729;52.090;13.162;2023-04-02T10:01:04;101528.38;;;5.37;70.92
49835;BME280;35729;52.090;13.162;2023-04-02T10:03:35;101528.34;;;5.34;70.07
49835;BME280;35729;52.090;13.162;2023-04-02T10:06:07;101533.56;;;5.34;70.44
49835;BME280;35729;52.090;13.162;2023-04-02T10:08:38;101534.41;;;5.34;71.94
49835;BME280;35729;52.090;13.162;2023-04-02T10:11:09;101536.16;;;5.34;66.23
49835;BME280;35729;52.090;13.162;2023-04-02T10:13:48;101545.66;;;5.32;63.61
49835;BME280;35729;52.090;13.162;2023-04-02T10:16:22;101549.16;;;5.32;68.80
49835;BME280;35729;52.090;13.162;2023-04-02T10:19:01;101556.06;;;5.32;67.07
49835;BME280;35729;52.090;13.162;2023-04-02T10:21:36;101550.09;;;5.37;70.88
49835;BME280;35729;52.090;13.162;2023-04-02T10:24:09;101557.13;;;5.46;71.64
49835;BME280;35729;52.090;13.162;2023-04-02T10:26:46;101557.22;;;5.52;70.76
49835;BME280;35729;52.090;13.162;2023-04-02T10:29:29;101562.53;;;5.62;68.31
49835;BME280;35729;52.090;13.162;2023-04-02T10:32:05;101571.22;;;5.64;66.79
49835;BME280;35729;52.090;13.162;2023-04-02T10:34:43;101559.06;;;5.64;70.79
49835;BME280;35729;52.090;13.162;2023-04-02T10:40:20;101573.78;;;5.62;68.73
49835;BME280;35729;52.090;13.162;2023-04-02T10:43:13;101576.41;;;5.62;69.38
49835;BME280;35729;52.090;13.162;2023-04-02T10:45:49;101578.22;;;5.66;69.24
49835;BME280;35729;52.090;13.162;2023-04-02T10:48:24;101590.38;;;5.69;68.35
49835;BME280;35729;52.090;13.162;2023-04-02T10:51:01;101593.88;;;5.71;68.67
49835;BME280;35729;52.090;13.162;2023-04-02T10:53:36;101602.59;;;5.75;68.08
49835;BME280;35729;52.090;13.162;2023-04-02T10:56:11;101598.38;;;5.84;69.99
49835;BME280;35729;52.090;13.162;2023-04-02T10:58:49;101608.88;;;5.91;64.27
49835;BME280;35729;52.090;13.162;2023-04-02T11:01:23;101607.16;;;5.94;65.49
49835;BME280;35729;52.090;13.162;2023-04-02T11:03:57;101607.22;;;5.99;67.53
49835;BME280;35729;52.090;13.162;2023-04-02T11:06:33;101608.13;;;5.99;65.32
49835;BME280;35729;52.090;13.162;2023-04-02T11:09:13;101614.13;;;5.95;59.68
49835;BME280;35729;52.090;13.162;2023-04-02T11:11:45;101614.13;;;5.95;66.49
49835;BME280;35729;52.090;13.162;2023-04-02T11:14:16;101617.59;;;5.93;62.28
49835;BME280;35729;52.090;13.162;2023-04-02T11:16:48;101621.03;;;5.93;64.08
49835;BME280;35729;52.090;13.162;2023-04-02T11:19:24;101625.44;;;5.97;63.76
49835;BME280;35729;52.090;13.162;2023-04-02T11:21:56;101630.72;;;6.00;65.23
49835;BME280;35729;52.090;13.162;2023-04-02T11:24:36;101632.50;;;6.05;65.57
49835;BME280;35729;52.090;13.162;2023-04-02T11:27:16;101635.13;;;6.08;65.09
49835;BME280;35729;52.090;13.162;2023-04-02T11:29:46;101637.78;;;6.11;67.15
49835;BME280;35729;52.090;13.162;2023-04-02T11:32:35;101633.47;;;6.14;63.03
49835;BME280;35729;52.090;13.162;2023-04-02T11:41:11;101636.44;;;6.51;68.08
49835;BME280;35729;52.090;13.162;2023-04-02T11:43:50;101636.63;;;6.68;59.99
49835;BME280;35729;52.090;13.162;2023-04-02T11:46:49;101644.63;;;6.90;57.50
49835;BME280;35729;52.090;13.162;2023-04-02T11:49:34;101646.47;;;7.10;61.94
49835;BME280;35729;52.090;13.162;2023-04-02T11:52:19;101651.84;;;7.30;63.28
49835;BME280;35729;52.090;13.162;2023-04-02T11:54:58;101655.41;;;7.43;59.21
49835;BME280;35729;52.090;13.162;2023-04-02T11:57:41;101662.41;;;7.53;63.55
49835;BME280;35729;52.090;13.162;2023-04-02T12:00:22;101665.13;;;7.69;64.60
49835;BME280;35729;52.090;13.162;2023-04-02T12:03:19;101668.63;;;7.77;57.68
49835;BME280;35729;52.090;13.162;2023-04-02T12:06:00;101669.53;;;7.82;62.66
49835;BME280;35729;52.090;13.162;2023-04-02T12:08:42;101670.38;;;7.76;55.94
49835;BME280;35729;52.090;13.162;2023-04-02T12:11:14;101671.25;;;7.72;62.21
49835;BME280;35729;52.090;13.162;2023-04-02T12:13:50;101681.63;;;7.61;54.76
49835;BME280;35729;52.090;13.162;2023-04-02T12:16:20;101678.06;;;7.52;58.79
49835;BME280;35729;52.090;13.162;2023-04-02T12:18:50;101674.53;;;7.39;62.23
49835;BME280;35729;52.090;13.162;2023-04-02T12:21:22;101684.03;;;7.27;63.15
49835;BME280;35729;52.090;13.162;2023-04-02T12:23:53;101692.66;;;7.20;60.72
49835;BME280;35729;52.090;13.162;2023-04-02T12:26:33;101696.00;;;7.04;56.32
49835;BME280;35729;52.090;13.162;2023-04-02T12:29:14;101696.00;;;7.02;62.47
49835;BME280;35729;52.090;13.162;2023-04-02T12:31:43;101697.75;;;7.01;64.35
49835;BME280;35729;52.090;13.162;2023-04-02T12:34:13;101696.06;;;7.07;63.40
49835;BME280;35729;52.090;13.162;2023-04-02T12:36:53;101706.56;;;7.14;58.11
49835;BME280;35729;52.090;13.162;2023-04-02T12:39:24;101707.50;;;7.24;63.65
49835;BME280;35729;52.090;13.162;2023-04-02T12:41:56;101704.09;;;7.34;61.91
49835;BME280;35729;52.090;13.162;2023-04-02T12:44:26;101709.38;;;7.45;63.86
49835;BME280;35729;52.090;13.162;2023-04-02T12:46:56;101709.41;;;7.52;61.03
49835;BME280;35729;52.090;13.162;2023-04-02T12:49:33;101725.13;;;7.56;57.09
49835;BME280;35729;52.090;13.162;2023-04-02T12:52:03;101725.16;;;7.64;60.80
49835;BME280;35729;52.090;13.162;2023-04-02T12:54:35;101713.91;;;7.73;61.11
49835;BME280;35729;52.090;13.162;2023-04-02T12:57:31;101723.53;;;7.81;55.69
49835;BME280;35729;52.090;13.162;2023-04-02T13:00:03;101726.19;;;7.86;62.26
49835;BME280;35729;52.090;13.162;2023-04-02T13:02:43;101739.28;;;7.98;54.65
49835;BME280;35729;52.090;13.162;2023-04-02T13:05:13;101728.00;;;8.03;61.33
49835;BME280;35729;52.090;13.162;2023-04-02T13:07:58;101736.72;;;8.06;62.25
49835;BME280;35729;52.090;13.162;2023-04-02T13:10:27;101737.59;;;8.10;62.06
49835;BME280;35729;52.090;13.162;2023-04-02T13:12:59;101744.56;;;8.09;58.58
49835;BME280;35729;52.090;13.162;2023-04-02T13:15:31;101732.38;;;8.07;60.19
49835;BME280;35729;52.090;13.162;2023-04-02T13:18:04;101731.50;;;8.06;62.57
49835;BME280;35729;52.090;13.162;2023-04-02T13:20:35;101738.47;;;8.12;63.25
49835;BME280;35729;52.090;13.162;2023-04-02T13:23:23;101746.34;;;8.17;60.11
49835;BME280;35729;52.090;13.162;2023-04-02T13:25:52;101735.91;;;8.21;62.68
49835;BME280;35729;52.090;13.162;2023-04-02T13:28:23;101736.78;;;8.26;61.79
49835;BME280;35729;52.090;13.162;2023-04-02T13:30:52;101738.56;;;8.30;62.14
49835;BME280;35729;52.090;13.162;2023-04-02T13:33:20;101736.84;;;8.36;62.93
49835;BME280;35729;52.090;13.162;2023-04-02T13:35:49;101739.47;;;8.43;59.90
49835;BME280;35729;52.090;13.162;2023-04-02T13:38:17;101735.16;;;8.50;60.90
49835;BME280;35729;52.090;13.162;2023-04-02T13:40:46;101743.00;;;8.50;59.10
49835;BME280;35729;52.090;13.162;2023-04-02T13:43:17;101743.91;;;8.58;60.96
49835;BME280;35729;52.090;13.162;2023-04-02T13:45:50;101743.91;;;8.63;59.74
49835;BME280;35729;52.090;13.162;2023-04-02T13:48:20;101742.19;;;8.68;61.21